createdAt,value
2023-04-17T00:01:42.434Z,3.17
2023-04-17T00:04:11.739Z,3.90
2023-04-17T00:06:40.156Z,2.60
2023-04-17T00:09:07.584Z,2.30
2023-04-17T00:11:34.965Z,2.10
2023-04-17T00:14:02.502Z,1.10
2023-04-17T00:16:30.239Z,0.70
2023-04-17T00:18:58.151Z,0.67
2023-04-17T00:21:26.450Z,0.77
2023-04-17T00:23:54.512Z,1.60
2023-04-17T00:26:21.912Z,0.80
2023-04-17T00:28:50.893Z,1.63
2023-04-17T00:31:18.656Z,2.20
2023-04-17T00:33:46.755Z,2.60
2023-04-17T00:36:15.690Z,2.60
2023-04-17T00:38:43.104Z,2.73
2023-04-17T00:41:11.451Z,2.90
2023-04-17T00:43:39.613Z,3.70
2023-04-17T00:46:07.219Z,2.13
2023-04-17T00:48:35.850Z,1.13
2023-04-17T00:51:03.609Z,1.37
2023-04-17T00:53:36.293Z,0.90
2023-04-17T00:56:07.022Z,1.80
2023-04-17T00:58:34.764Z,1.20
2023-04-17T01:01:02.216Z,1.20
2023-04-17T01:03:32.754Z,0.80
2023-04-17T01:06:01.168Z,0.77
2023-04-17T01:08:29.257Z,0.70
2023-04-17T01:10:56.765Z,0.80
2023-04-17T01:13:24.457Z,0.70
2023-04-17T01:15:51.774Z,0.90
2023-04-17T01:18:19.440Z,2.00
2023-04-17T01:20:46.781Z,3.40
2023-04-17T01:23:14.802Z,3.03
2023-04-17T01:25:42.406Z,2.60
2023-04-17T01:28:09.686Z,3.03
2023-04-17T01:30:37.244Z,1.80
2023-04-17T01:33:05.204Z,1.10
2023-04-17T01:35:32.653Z,1.40
2023-04-17T01:38:00.566Z,0.90
2023-04-17T01:40:28.149Z,0.80
2023-04-17T01:42:55.496Z,0.60
2023-04-17T01:45:23.413Z,1.10
2023-04-17T01:47:51.039Z,7.60
2023-04-17T01:50:20.676Z,2.90
2023-04-17T01:52:48.209Z,2.40
2023-04-17T01:55:15.565Z,2.80
2023-04-17T01:57:43.357Z,2.70
2023-04-17T02:00:11.509Z,3.63
2023-04-17T02:02:39.013Z,2.87
2023-04-17T02:05:08.275Z,2.10
2023-04-17T02:07:36.012Z,2.47
2023-04-17T02:10:03.669Z,1.43
2023-04-17T02:12:31.354Z,1.20
2023-04-17T02:15:01.558Z,0.70
2023-04-17T02:17:29.014Z,1.87
2023-04-17T02:19:58.529Z,1.00
2023-04-17T02:22:26.076Z,0.70
2023-04-17T02:24:53.487Z,0.80
2023-04-17T02:27:21.170Z,1.33
2023-04-17T02:29:48.709Z,2.50
2023-04-17T02:32:18.396Z,3.07
2023-04-17T02:34:45.951Z,2.97
2023-04-17T02:37:13.604Z,3.23
2023-04-17T02:39:41.131Z,2.80
2023-04-17T02:42:09.077Z,3.60
2023-04-17T02:44:36.713Z,3.30
2023-04-17T02:47:04.581Z,1.50
2023-04-17T02:49:33.428Z,0.90
2023-04-17T02:52:03.413Z,0.80
2023-04-17T02:54:33.747Z,0.80
2023-04-17T02:57:03.436Z,1.10
2023-04-17T02:59:30.983Z,0.80
2023-04-17T03:02:03.611Z,0.87
2023-04-17T03:04:31.275Z,0.90
2023-04-17T03:07:01.766Z,0.97
2023-04-17T03:09:29.762Z,0.87
2023-04-17T03:11:58.668Z,0.93
2023-04-17T03:14:28.073Z,0.73
2023-04-17T03:16:55.802Z,0.87
2023-04-17T03:19:24.462Z,0.70
2023-04-17T03:21:52.044Z,1.13
2023-04-17T03:24:19.337Z,2.93
2023-04-17T03:26:46.942Z,3.30
2023-04-17T03:29:14.609Z,2.90
2023-04-17T03:31:43.398Z,3.73
2023-04-17T03:34:11.124Z,3.17
2023-04-17T03:36:39.155Z,2.53
2023-04-17T03:39:06.683Z,2.23
2023-04-17T03:41:34.155Z,1.43
2023-04-17T03:44:03.512Z,0.77
2023-04-17T03:46:31.919Z,4.37
2023-04-17T03:49:00.886Z,0.80
2023-04-17T03:51:29.230Z,0.70
2023-04-17T03:53:56.825Z,0.80
2023-04-17T03:56:24.341Z,0.70
2023-04-17T03:58:51.825Z,1.23
2023-04-17T04:01:19.505Z,2.27
2023-04-17T04:03:47.230Z,3.30
2023-04-17T04:06:14.645Z,3.30
2023-04-17T04:08:42.025Z,3.90
2023-04-17T04:11:09.327Z,4.50
2023-04-17T04:13:36.916Z,3.97
2023-04-17T04:16:04.436Z,1.10
2023-04-17T04:18:32.088Z,0.67
2023-04-17T04:20:59.754Z,0.80
2023-04-17T04:23:28.439Z,0.90
2023-04-17T04:25:57.306Z,0.80
2023-04-17T04:28:24.940Z,0.80
2023-04-17T04:30:53.613Z,0.80
2023-04-17T04:33:21.522Z,1.83
2023-04-17T04:35:50.550Z,3.13
2023-04-17T04:38:19.485Z,3.40
2023-04-17T04:40:50.342Z,2.53
2023-04-17T04:43:19.041Z,2.80
2023-04-17T04:45:47.608Z,3.57
2023-04-17T04:48:14.965Z,3.13
2023-04-17T04:50:42.659Z,3.90
2023-04-17T04:53:10.077Z,7.90
2023-04-17T04:55:38.014Z,1.57
2023-04-17T04:58:05.585Z,1.90
2023-04-17T05:00:33.165Z,1.13
2023-04-17T05:03:01.164Z,0.80
2023-04-17T05:05:30.567Z,0.70
2023-04-17T05:07:59.472Z,0.80
2023-04-17T05:10:27.865Z,0.60
2023-04-17T05:12:55.405Z,2.50
2023-04-17T05:15:22.807Z,1.00
2023-04-17T05:17:50.370Z,1.73
2023-04-17T05:20:19.034Z,3.37
2023-04-17T05:22:47.154Z,2.87
2023-04-17T05:25:14.652Z,2.90
2023-04-17T05:27:42.162Z,3.40
2023-04-17T05:30:11.458Z,3.77
2023-04-17T05:32:39.044Z,3.20
2023-04-17T05:35:07.023Z,2.17
2023-04-17T05:37:34.985Z,1.30
2023-04-17T05:40:03.130Z,0.97
2023-04-17T05:42:31.519Z,1.03
2023-04-17T05:45:01.022Z,0.70
2023-04-17T05:47:29.039Z,0.70
2023-04-17T05:49:59.109Z,0.70
2023-04-17T05:52:27.017Z,0.80
2023-04-17T05:54:54.425Z,0.70
2023-04-17T05:57:21.726Z,1.97
2023-04-17T05:59:49.615Z,3.93
2023-04-17T06:02:17.291Z,5.83
2023-04-17T06:04:45.303Z,3.00
2023-04-17T06:07:13.122Z,3.10
2023-04-17T06:09:41.635Z,2.80
2023-04-17T06:12:16.153Z,3.13
2023-04-17T06:14:44.200Z,3.23
2023-04-17T06:17:12.692Z,3.20
2023-04-17T06:19:40.256Z,3.00
2023-04-17T06:22:07.824Z,2.70
2023-04-17T06:24:35.989Z,1.30
2023-04-17T06:27:04.197Z,1.57
2023-04-17T06:29:32.001Z,0.80
2023-04-17T06:31:59.694Z,0.80
2023-04-17T06:34:28.776Z,0.80
2023-04-17T06:36:56.783Z,1.00
2023-04-17T06:39:24.220Z,2.43
2023-04-17T06:41:52.245Z,1.37
2023-04-17T06:44:19.939Z,3.30
2023-04-17T06:46:48.660Z,3.07
2023-04-17T06:49:16.249Z,2.97
2023-04-17T06:51:46.157Z,2.30
2023-04-17T06:54:15.181Z,2.60
2023-04-17T06:56:42.756Z,3.33
2023-04-17T06:59:10.816Z,2.83
2023-04-17T07:01:40.880Z,4.00
2023-04-17T07:04:10.725Z,1.63
2023-04-17T07:06:39.907Z,1.27
2023-04-17T07:09:07.400Z,3.10
2023-04-17T07:11:35.116Z,1.30
2023-04-17T07:14:02.592Z,2.60
2023-04-17T07:16:30.363Z,0.63
2023-04-17T07:18:57.864Z,0.60
2023-04-17T07:21:25.458Z,2.50
2023-04-17T07:23:53.646Z,0.80
2023-04-17T07:26:22.835Z,1.20
2023-04-17T07:28:50.397Z,1.53
2023-04-17T07:31:19.639Z,2.70
2023-04-17T07:33:47.102Z,2.40
2023-04-17T07:36:16.561Z,2.40
2023-04-17T07:38:44.137Z,3.23
2023-04-17T07:41:12.723Z,3.03
2023-04-17T07:43:40.220Z,1.77
2023-04-17T07:46:07.509Z,1.43
2023-04-17T07:48:34.900Z,1.10
2023-04-17T07:51:03.594Z,0.90
2023-04-17T07:53:31.351Z,0.80
2023-04-17T07:55:59.976Z,0.70
2023-04-17T07:58:28.589Z,0.80
2023-04-17T08:00:56.551Z,0.80
2023-04-17T08:03:24.729Z,0.87
2023-04-17T08:05:52.400Z,0.70
2023-04-17T08:08:20.548Z,1.30
2023-04-17T08:10:48.066Z,2.20
2023-04-17T08:13:15.678Z,2.40
2023-04-17T08:15:44.243Z,2.30
2023-04-17T08:18:12.046Z,3.13
2023-04-17T08:20:40.281Z,3.07
2023-04-17T08:23:07.790Z,1.80
2023-04-17T08:25:35.311Z,1.23
2023-04-17T08:28:04.594Z,1.30
2023-04-17T08:30:32.199Z,0.90
2023-04-17T08:32:59.677Z,0.70
2023-04-17T08:35:27.468Z,0.80
2023-04-17T08:37:57.389Z,1.77
2023-04-17T08:40:26.565Z,0.70
2023-04-17T08:42:54.890Z,0.70
2023-04-17T08:45:26.908Z,0.73
2023-04-17T08:47:55.291Z,0.80
2023-04-17T08:50:23.132Z,0.60
2023-04-17T08:52:52.928Z,1.73
2023-04-17T08:55:26.676Z,1.43
2023-04-17T08:58:01.156Z,0.63
2023-04-17T09:00:31.948Z,0.77
2023-04-17T09:03:02.803Z,1.53
2023-04-17T09:05:37.105Z,0.73
2023-04-17T09:08:08.943Z,2.37
2023-04-17T09:10:55.545Z,1.50
2023-04-17T09:13:25.740Z,0.70
2023-04-17T09:16:08.913Z,1.40
2023-04-17T09:18:38.201Z,1.53
2023-04-17T09:21:07.277Z,0.80
2023-04-17T09:23:52.451Z,0.90
2023-04-17T09:26:27.633Z,1.37
2023-04-17T09:29:13.216Z,0.63
2023-04-17T09:31:46.762Z,2.30
2023-04-17T09:34:15.755Z,1.80
2023-04-17T09:36:45.636Z,1.87
2023-04-17T09:39:21.581Z,2.20
2023-04-17T09:41:49.084Z,1.37
2023-04-17T09:44:28.434Z,1.83
2023-04-17T09:46:58.042Z,0.67
2023-04-17T09:49:42.987Z,0.97
2023-04-17T09:52:10.366Z,2.30
2023-04-17T09:54:38.291Z,1.47
2023-04-17T09:57:10.546Z,1.10
2023-04-17T09:59:45.371Z,1.37
2023-04-17T10:02:18.718Z,4.33
2023-04-17T10:04:47.819Z,1.80
2023-04-17T10:07:18.037Z,1.73
2023-04-17T10:09:46.285Z,1.67
2023-04-17T10:12:19.142Z,1.80
2023-04-17T10:14:49.221Z,2.10
2023-04-17T10:17:32.166Z,1.93
2023-04-17T10:20:23.696Z,0.60
2023-04-17T10:22:56.694Z,1.07
2023-04-17T10:25:27.794Z,0.73
2023-04-17T10:28:02.430Z,0.60
2023-04-17T10:30:55.630Z,0.70
2023-04-17T10:33:27.646Z,0.50
2023-04-17T10:35:55.279Z,0.57
2023-04-17T10:38:36.492Z,0.60
2023-04-17T10:41:09.402Z,1.53
2023-04-17T10:43:41.340Z,1.43
2023-04-17T10:46:15.661Z,1.10
2023-04-17T10:48:47.219Z,2.30
2023-04-17T10:51:30.370Z,1.97
2023-04-17T10:54:02.436Z,0.60
2023-04-17T10:56:46.641Z,0.80
2023-04-17T10:59:18.316Z,2.00
2023-04-17T11:01:48.872Z,2.00
2023-04-17T11:04:30.112Z,2.13
2023-04-17T11:06:58.830Z,0.70
2023-04-17T11:09:29.382Z,0.80
2023-04-17T11:12:02.464Z,0.70
2023-04-17T11:14:31.687Z,0.90
2023-04-17T11:17:01.181Z,0.60
2023-04-17T11:19:28.733Z,0.60
2023-04-17T11:22:01.823Z,0.70
2023-04-17T11:24:31.298Z,0.60
2023-04-17T11:27:02.443Z,0.67
2023-04-17T11:29:31.119Z,1.00
2023-04-17T11:32:02.104Z,0.90
2023-04-17T11:34:30.348Z,0.57
2023-04-17T11:37:01.426Z,0.70
2023-04-17T11:39:33.443Z,0.50
2023-04-17T11:42:05.413Z,0.60
2023-04-17T11:44:33.156Z,0.80
2023-04-17T11:47:02.035Z,0.80
2023-04-17T11:49:33.721Z,0.60
2023-04-17T11:52:03.052Z,0.70
2023-04-17T11:54:37.981Z,0.60
2023-04-17T11:57:08.075Z,1.07
2023-04-17T11:59:39.641Z,0.90
2023-04-17T12:02:08.750Z,2.30
2023-04-17T12:04:37.833Z,1.77
2023-04-17T12:07:07.719Z,0.90
2023-04-17T12:09:35.714Z,1.20
2023-04-17T12:12:06.955Z,0.80
2023-04-17T12:14:34.534Z,0.77
2023-04-17T12:17:02.511Z,0.70
2023-04-17T12:19:32.547Z,0.60
2023-04-17T12:22:01.924Z,0.70
2023-04-17T12:24:29.415Z,1.00
2023-04-17T12:27:02.272Z,0.70
2023-04-17T12:29:44.026Z,0.90
2023-04-17T12:32:12.668Z,2.03
2023-04-17T12:34:40.910Z,1.90
2023-04-17T12:37:08.411Z,1.23
2023-04-17T12:39:35.778Z,1.43
2023-04-17T12:42:03.361Z,1.33
2023-04-17T12:44:33.743Z,0.53
2023-04-17T12:47:01.633Z,0.60
2023-04-17T12:49:29.307Z,0.60
2023-04-17T12:51:56.813Z,0.60
2023-04-17T12:54:24.195Z,0.70
2023-04-17T12:56:52.027Z,0.90
2023-04-17T12:59:19.880Z,1.60
2023-04-17T13:01:47.331Z,2.00
2023-04-17T13:04:15.161Z,1.97
2023-04-17T13:06:43.238Z,2.50
2023-04-17T13:09:11.408Z,1.57
2023-04-17T13:11:38.934Z,1.40
2023-04-17T13:14:06.454Z,1.60
2023-04-17T13:16:34.004Z,1.07
2023-04-17T13:19:02.068Z,0.60
2023-04-17T13:21:31.282Z,0.60
2023-04-17T13:23:58.940Z,0.60
2023-04-17T13:26:27.608Z,0.60
2023-04-17T13:28:55.186Z,0.57
2023-04-17T13:31:24.834Z,0.80
2023-04-17T13:33:52.252Z,0.90
2023-04-17T13:36:19.757Z,1.40
2023-04-17T13:38:47.554Z,1.83
2023-04-17T13:41:14.984Z,1.77
2023-04-17T13:43:42.322Z,3.70
2023-04-17T13:46:09.867Z,2.23
2023-04-17T13:48:38.016Z,1.70
2023-04-17T13:51:05.584Z,0.77
2023-04-17T13:53:33.110Z,1.07
2023-04-17T13:56:02.872Z,0.60
2023-04-17T13:58:30.617Z,0.73
2023-04-17T14:00:58.877Z,0.60
2023-04-17T14:03:27.035Z,0.60
2023-04-17T14:05:54.713Z,0.50
2023-04-17T14:08:22.254Z,0.87
2023-04-17T14:10:49.782Z,1.63
2023-04-17T14:13:17.301Z,2.03
2023-04-17T14:15:44.877Z,2.00
2023-04-17T14:18:12.412Z,2.10
2023-04-17T14:20:39.957Z,2.50
2023-04-17T14:23:07.477Z,1.97
2023-04-17T14:25:34.952Z,0.93
2023-04-17T14:28:02.385Z,1.43
2023-04-17T14:30:32.976Z,0.60
2023-04-17T14:33:00.649Z,0.50
2023-04-17T14:35:28.379Z,0.57
2023-04-17T14:37:56.034Z,0.70
2023-04-17T14:40:23.355Z,1.40
2023-04-17T14:42:54.538Z,1.20
2023-04-17T14:45:22.489Z,0.87
2023-04-17T14:47:50.653Z,1.57
2023-04-17T14:50:18.167Z,2.00
2023-04-17T14:52:45.685Z,1.83
2023-04-17T14:55:13.602Z,2.50
2023-04-17T14:57:40.999Z,2.40
2023-04-17T15:00:09.427Z,1.33
2023-04-17T15:02:39.598Z,2.90
2023-04-17T15:05:07.879Z,2.30
2023-04-17T15:07:36.058Z,1.40
2023-04-17T15:10:05.211Z,0.80
2023-04-17T15:12:32.924Z,0.67
2023-04-17T15:15:00.628Z,0.60
2023-04-17T15:17:28.140Z,0.60
2023-04-17T15:19:57.736Z,0.60
2023-04-17T15:22:26.009Z,0.60
2023-04-17T15:24:53.709Z,0.60
2023-04-17T15:27:21.200Z,1.20
2023-04-17T15:29:48.664Z,1.87
2023-04-17T15:32:16.919Z,2.00
2023-04-17T15:34:45.870Z,1.93
2023-04-17T15:37:13.310Z,2.30
2023-04-17T15:39:41.087Z,2.67
2023-04-17T15:42:09.689Z,1.43
2023-04-17T15:44:38.039Z,1.57
2023-04-17T15:47:06.998Z,0.83
2023-04-17T15:49:34.864Z,0.97
2023-04-17T15:52:02.890Z,0.70
2023-04-17T15:54:31.566Z,0.50
2023-04-17T15:56:59.425Z,0.70
2023-04-17T15:59:26.799Z,0.70
2023-04-17T16:01:54.612Z,0.60
2023-04-17T16:04:22.419Z,0.83
2023-04-17T16:06:50.172Z,2.10
2023-04-17T16:09:24.610Z,1.67
2023-04-17T16:11:53.900Z,1.00
2023-04-17T16:14:22.900Z,1.20
2023-04-17T16:16:51.965Z,1.57
2023-04-17T16:19:20.931Z,1.67
2023-04-17T16:21:49.923Z,1.93
2023-04-17T16:24:17.377Z,1.80
2023-04-17T16:26:44.845Z,1.80
2023-04-17T16:29:14.140Z,2.20
2023-04-17T16:31:42.078Z,2.03
2023-04-17T16:34:09.931Z,2.27
2023-04-17T16:36:37.448Z,1.50
2023-04-17T16:39:05.004Z,1.13
2023-04-17T16:41:33.906Z,0.70
2023-04-17T16:44:01.864Z,0.60
2023-04-17T16:46:40.220Z,0.50
2023-04-17T16:49:18.944Z,1.83
2023-04-17T16:51:46.345Z,2.00
2023-04-17T16:54:14.042Z,1.83
2023-04-17T16:56:43.926Z,1.63
2023-04-17T16:59:12.006Z,1.67
2023-04-17T17:01:39.840Z,2.53
2023-04-17T17:04:09.085Z,1.77
2023-04-17T17:06:36.560Z,1.80
2023-04-17T17:09:04.169Z,0.87
2023-04-17T17:11:31.981Z,0.70
2023-04-17T17:13:59.512Z,0.70
2023-04-17T17:16:27.327Z,0.60
2023-04-17T17:18:55.037Z,0.57
2023-04-17T17:21:23.889Z,0.93
2023-04-17T17:23:51.358Z,1.33
2023-04-17T17:26:18.798Z,2.03
2023-04-17T17:28:51.448Z,2.93
2023-04-17T17:31:20.356Z,1.80
2023-04-17T17:33:50.742Z,1.80
2023-04-17T17:36:18.997Z,1.73
2023-04-17T17:38:48.126Z,1.80
2023-04-17T17:41:15.560Z,1.97
2023-04-17T17:43:43.347Z,3.20
2023-04-17T17:46:10.811Z,1.97
2023-04-17T17:48:38.123Z,1.40
2023-04-17T17:51:05.759Z,0.87
2023-04-17T17:53:33.220Z,0.83
2023-04-17T17:56:00.926Z,0.60
2023-04-17T17:58:28.412Z,0.50
2023-04-17T18:00:55.807Z,0.70
2023-04-17T18:03:25.215Z,0.60
2023-04-17T18:05:53.216Z,1.10
2023-04-17T18:08:20.612Z,2.43
2023-04-17T18:10:50.066Z,2.43
2023-04-17T18:13:17.438Z,2.10
2023-04-17T18:15:46.113Z,2.57
2023-04-17T18:18:13.574Z,2.93
2023-04-17T18:20:40.954Z,2.10
2023-04-17T18:23:09.956Z,1.67
2023-04-17T18:25:37.851Z,2.20
2023-04-17T18:28:06.952Z,1.17
2023-04-17T18:30:34.510Z,0.90
2023-04-17T18:33:02.123Z,0.70
2023-04-17T18:35:30.198Z,0.70
2023-04-17T18:37:58.076Z,0.80
2023-04-17T18:40:25.770Z,0.70
2023-04-17T18:42:55.208Z,1.00
2023-04-17T18:45:22.900Z,1.00
2023-04-17T18:47:50.759Z,2.50
2023-04-17T18:50:18.480Z,3.47
2023-04-17T18:52:49.617Z,2.13
2023-04-17T18:55:18.775Z,2.30
2023-04-17T18:57:48.133Z,2.10
2023-04-17T19:00:15.947Z,2.40
2023-04-17T19:02:43.656Z,2.83
2023-04-17T19:05:13.123Z,2.50
2023-04-17T19:07:40.580Z,2.50
2023-04-17T19:10:10.086Z,2.10
2023-04-17T19:12:37.883Z,1.97
2023-04-17T19:15:06.407Z,0.80
2023-04-17T19:17:33.975Z,1.03
2023-04-17T19:20:01.614Z,0.73
2023-04-17T19:22:29.394Z,0.60
2023-04-17T19:24:56.854Z,0.80
2023-04-17T19:27:25.734Z,0.70
2023-04-17T19:29:54.268Z,0.80
2023-04-17T19:32:21.911Z,1.23
2023-04-17T19:34:51.016Z,2.60
2023-04-17T19:37:18.376Z,2.00
2023-04-17T19:39:49.001Z,2.30
2023-04-17T19:42:16.401Z,2.60
2023-04-17T19:44:44.997Z,2.50
2023-04-17T19:47:15.086Z,2.80
2023-04-17T19:49:42.864Z,2.20
2023-04-17T19:52:12.129Z,2.53
2023-04-17T19:54:39.796Z,2.50
2023-04-17T19:57:07.206Z,2.20
2023-04-17T19:59:34.667Z,0.90
2023-04-17T20:02:02.565Z,0.80
2023-04-17T20:04:30.604Z,0.70
2023-04-17T20:06:59.272Z,0.90
2023-04-17T20:09:26.761Z,0.70
2023-04-17T20:11:54.178Z,1.27
2023-04-17T20:14:22.029Z,1.43
2023-04-17T20:16:50.366Z,2.20
2023-04-17T20:19:18.064Z,2.50
2023-04-17T20:21:47.213Z,2.20
2023-04-17T20:24:18.014Z,2.50
2023-04-17T20:26:47.111Z,2.40
2023-04-17T20:29:15.062Z,2.30
2023-04-17T20:31:42.626Z,2.90
2023-04-17T20:34:10.170Z,2.20
2023-04-17T20:36:39.026Z,2.70
2023-04-17T20:39:07.650Z,1.37
2023-04-17T20:41:38.949Z,1.53
2023-04-17T20:44:07.176Z,2.10
2023-04-17T20:46:34.842Z,1.10
2023-04-17T20:49:02.750Z,0.90
2023-04-17T20:51:32.203Z,0.80
2023-04-17T20:54:01.373Z,2.50
2023-04-17T20:56:28.962Z,0.80
2023-04-17T20:58:58.196Z,1.53
2023-04-17T21:01:25.795Z,0.60
2023-04-17T21:03:53.450Z,1.30
2023-04-17T21:06:22.727Z,1.73
2023-04-17T21:08:50.213Z,2.20
2023-04-17T21:11:17.721Z,2.53
2023-04-17T21:13:45.083Z,2.70
2023-04-17T21:16:12.747Z,2.60
2023-04-17T21:18:40.375Z,2.63
2023-04-17T21:21:07.846Z,2.50
2023-04-17T21:23:35.245Z,1.73
2023-04-17T21:26:05.050Z,0.90
2023-04-17T21:28:32.619Z,0.80
2023-04-17T21:31:00.861Z,0.90
2023-04-17T21:33:28.213Z,1.30
2023-04-17T21:35:57.065Z,0.70
2023-04-17T21:38:24.595Z,0.80
2023-04-17T21:40:54.145Z,1.40
2023-04-17T21:43:21.648Z,1.67
2023-04-17T21:45:50.144Z,2.63
2023-04-17T21:48:18.178Z,3.00
2023-04-17T21:50:45.572Z,2.70
2023-04-17T21:53:12.927Z,2.70
2023-04-17T21:55:42.087Z,4.93
2023-04-17T21:58:09.507Z,1.40
2023-04-17T22:00:36.948Z,3.03
2023-04-17T22:03:04.375Z,1.27
2023-04-17T22:05:33.165Z,0.87
2023-04-17T22:08:03.195Z,0.70
2023-04-17T22:10:31.133Z,0.70
2023-04-17T22:13:00.350Z,0.70
2023-04-17T22:15:27.918Z,0.60
2023-04-17T22:17:55.609Z,1.07
2023-04-17T22:20:23.298Z,1.00
2023-04-17T22:22:51.173Z,2.30
2023-04-17T22:25:20.154Z,2.70
2023-04-17T22:27:47.906Z,2.60
2023-04-17T22:30:15.376Z,2.60
2023-04-17T22:32:42.985Z,2.83
2023-04-17T22:35:12.132Z,2.90
2023-04-17T22:37:39.609Z,1.83
2023-04-17T22:40:08.362Z,2.40
2023-04-17T22:42:35.915Z,1.53
2023-04-17T22:45:03.604Z,1.10
2023-04-17T22:47:32.536Z,0.63
2023-04-17T22:50:00.335Z,1.13
2023-04-17T22:52:28.018Z,0.77
2023-04-17T22:54:56.465Z,0.80
2023-04-17T22:57:23.946Z,0.90
2023-04-17T22:59:51.412Z,1.27
2023-04-17T23:02:18.923Z,2.97
2023-04-17T23:04:46.337Z,2.80
2023-04-17T23:07:13.791Z,2.93
2023-04-17T23:09:41.042Z,3.53
2023-04-17T23:12:08.583Z,1.83
2023-04-17T23:14:36.395Z,1.47
2023-04-17T23:17:04.081Z,1.13
2023-04-17T23:19:32.220Z,0.63
2023-04-17T23:22:02.336Z,1.77
2023-04-17T23:24:34.775Z,0.63
2023-04-17T23:27:02.579Z,0.97
2023-04-17T23:29:31.062Z,0.70
2023-04-17T23:31:59.045Z,0.80
2023-04-17T23:34:28.426Z,1.30
2023-04-17T23:36:56.222Z,1.50
2023-04-17T23:39:23.887Z,1.37
2023-04-17T23:41:51.274Z,1.63
2023-04-17T23:44:19.289Z,4.20
2023-04-17T23:46:46.929Z,3.20
2023-04-17T23:49:15.736Z,2.80
2023-04-17T23:51:43.645Z,3.07
2023-04-17T23:54:11.549Z,3.30
2023-04-17T23:56:39.188Z,2.20
2023-04-17T23:59:06.680Z,1.23
